sensor_id;sensor_type;location;lat;lon;timestamp;P1;durP1;ratioP1;P2;durP2;ratioP2
18999;SDS011;9633;50.980;13.850;2023-12-22T00:00:20;8.07;;;2.37;;
18999;SDS011;9633;50.980;13.850;2023-12-22T00:01:53;9.53;;;2.50;;
18999;SDS011;9633;50.980;13.850;2023-12-22T00:03:25;13.03;;;2.80;;
18999;SDS011;9633;50.980;13.850;2023-12-22T00:04:59;13.50;;;2.53;;
18999;SDS011;9633;50.980;13.850;2023-12-22T00:06:31;8.63;;;2.73;;
18999;SDS011;9633;50.980;13.850;2023-12-22T00:08:04;10.60;;;2.67;;
18999;SDS011;9633;50.980;13.850;2023-12-22T00:09:38;12.93;;;3.07;;
18999;SDS011;9633;50.980;13.850;2023-12-22T00:11:10;12.37;;;2.90;;
18999;SDS011;9633;50.980;13.850;2023-12-22T00:12:43;10.93;;;2.87;;
18999;SDS011;9633;50.980;13.850;2023-12-22T00:14:18;14.07;;;2.60;;
18999;SDS011;9633;50.980;13.850;2023-12-22T00:15:50;12.70;;;2.83;;
18999;SDS011;9633;50.980;13.850;2023-12-22T00:17:23;12.60;;;2.50;;
18999;SDS011;9633;50.980;13.850;2023-12-22T00:18:56;9.50;;;2.97;;
18999;SDS011;9633;50.980;13.850;2023-12-22T00:20:29;14.03;;;3.13;;
18999;SDS011;9633;50.980;13.850;2023-12-22T00:22:02;16.33;;;3.47;;
18999;SDS011;9633;50.980;13.850;2023-12-22T00:23:36;10.43;;;2.70;;
18999;SDS011;9633;50.980;13.850;2023-12-22T00:25:08;10.80;;;2.77;;
18999;SDS011;9633;50.980;13.850;2023-12-22T00:26:42;13.77;;;2.90;;
18999;SDS011;9633;50.980;13.850;2023-12-22T00:28:15;18.67;;;3.87;;
18999;SDS011;9633;50.980;13.850;2023-12-22T00:29:49;16.13;;;2.87;;
18999;SDS011;9633;50.980;13.850;2023-12-22T00:31:21;14.50;;;3.07;;
18999;SDS011;9633;50.980;13.850;2023-12-22T00:32:55;14.30;;;3.00;;
18999;SDS011;9633;50.980;13.850;2023-12-22T00:34:27;14.03;;;2.50;;
18999;SDS011;9633;50.980;13.850;2023-12-22T00:36:00;10.77;;;2.87;;
18999;SDS011;9633;50.980;13.850;2023-12-22T00:37:33;11.73;;;2.57;;
18999;SDS011;9633;50.980;13.850;2023-12-22T00:39:06;10.57;;;2.40;;
18999;SDS011;9633;50.980;13.850;2023-12-22T00:40:39;15.30;;;2.80;;
18999;SDS011;9633;50.980;13.850;2023-12-22T00:42:12;15.70;;;3.50;;
18999;SDS011;9633;50.980;13.850;2023-12-22T00:43:45;16.73;;;3.00;;
18999;SDS011;9633;50.980;13.850;2023-12-22T00:45:19;13.60;;;2.90;;
18999;SDS011;9633;50.980;13.850;2023-12-22T00:46:52;10.77;;;2.57;;
18999;SDS011;9633;50.980;13.850;2023-12-22T00:48:25;14.30;;;2.93;;
18999;SDS011;9633;50.980;13.850;2023-12-22T00:49:57;14.77;;;3.10;;
18999;SDS011;9633;50.980;13.850;2023-12-22T00:51:31;10.77;;;3.03;;
18999;SDS011;9633;50.980;13.850;2023-12-22T00:53:03;15.17;;;3.23;;
18999;SDS011;9633;50.980;13.850;2023-12-22T00:54:36;11.37;;;3.10;;
18999;SDS011;9633;50.980;13.850;2023-12-22T00:56:08;12.73;;;3.07;;
18999;SDS011;9633;50.980;13.850;2023-12-22T00:57:44;14.87;;;2.50;;
18999;SDS011;9633;50.980;13.850;2023-12-22T00:59:16;16.70;;;3.50;;
18999;SDS011;9633;50.980;13.850;2023-12-22T01:00:51;10.33;;;2.93;;
18999;SDS011;9633;50.980;13.850;2023-12-22T01:02:24;13.50;;;2.93;;
18999;SDS011;9633;50.980;13.850;2023-12-22T01:03:57;12.00;;;2.63;;
18999;SDS011;9633;50.980;13.850;2023-12-22T01:05:29;7.53;;;2.17;;
18999;SDS011;9633;50.980;13.850;2023-12-22T01:07:03;7.53;;;2.77;;
18999;SDS011;9633;50.980;13.850;2023-12-22T01:08:36;10.00;;;2.67;;
18999;SDS011;9633;50.980;13.850;2023-12-22T01:10:10;12.67;;;2.90;;
18999;SDS011;9633;50.980;13.850;2023-12-22T01:11:42;11.97;;;2.80;;
18999;SDS011;9633;50.980;13.850;2023-12-22T01:13:15;11.07;;;3.30;;
18999;SDS011;9633;50.980;13.850;2023-12-22T01:14:49;11.37;;;2.83;;
18999;SDS011;9633;50.980;13.850;2023-12-22T01:16:24;12.37;;;2.30;;
18999;SDS011;9633;50.980;13.850;2023-12-22T01:18:00;11.40;;;2.60;;
18999;SDS011;9633;50.980;13.850;2023-12-22T01:19:32;13.80;;;3.47;;
18999;SDS011;9633;50.980;13.850;2023-12-22T01:21:05;12.87;;;2.87;;
18999;SDS011;9633;50.980;13.850;2023-12-22T01:22:37;12.53;;;3.17;;
18999;SDS011;9633;50.980;13.850;2023-12-22T01:24:11;13.27;;;2.93;;
18999;SDS011;9633;50.980;13.850;2023-12-22T01:25:43;14.93;;;2.90;;
18999;SDS011;9633;50.980;13.850;2023-12-22T01:27:16;14.30;;;2.90;;
18999;SDS011;9633;50.980;13.850;2023-12-22T01:28:49;10.97;;;2.13;;
18999;SDS011;9633;50.980;13.850;2023-12-22T01:30:22;9.93;;;2.40;;
18999;SDS011;9633;50.980;13.850;2023-12-22T01:31:56;12.93;;;3.00;;
18999;SDS011;9633;50.980;13.850;2023-12-22T01:33:29;8.13;;;2.20;;
18999;SDS011;9633;50.980;13.850;2023-12-22T01:35:01;10.37;;;2.70;;
18999;SDS011;9633;50.980;13.850;2023-12-22T01:36:40;15.03;;;2.80;;
18999;SDS011;9633;50.980;13.850;2023-12-22T01:38:13;17.83;;;3.00;;
18999;SDS011;9633;50.980;13.850;2023-12-22T01:39:46;11.23;;;2.90;;
18999;SDS011;9633;50.980;13.850;2023-12-22T01:41:19;10.17;;;2.60;;
18999;SDS011;9633;50.980;13.850;2023-12-22T01:42:51;14.07;;;3.27;;
18999;SDS011;9633;50.980;13.850;2023-12-22T01:44:24;11.67;;;3.00;;
18999;SDS011;9633;50.980;13.850;2023-12-22T01:45:56;9.03;;;2.60;;
18999;SDS011;9633;50.980;13.850;2023-12-22T01:47:32;12.47;;;3.43;;
18999;SDS011;9633;50.980;13.850;2023-12-22T01:49:05;11.23;;;2.93;;
18999;SDS011;9633;50.980;13.850;2023-12-22T01:50:40;14.07;;;3.63;;
18999;SDS011;9633;50.980;13.850;2023-12-22T01:52:12;17.63;;;3.70;;
18999;SDS011;9633;50.980;13.850;2023-12-22T01:53:46;16.53;;;3.10;;
18999;SDS011;9633;50.980;13.850;2023-12-22T01:55:20;12.43;;;2.93;;
18999;SDS011;9633;50.980;13.850;2023-12-22T01:56:53;17.37;;;4.00;;
18999;SDS011;9633;50.980;13.850;2023-12-22T01:58:27;16.90;;;3.33;;
18999;SDS011;9633;50.980;13.850;2023-12-22T02:00:08;10.50;;;2.80;;
18999;SDS011;9633;50.980;13.850;2023-12-22T02:01:43;10.40;;;3.47;;
18999;SDS011;9633;50.980;13.850;2023-12-22T02:03:19;13.30;;;3.33;;
18999;SDS011;9633;50.980;13.850;2023-12-22T02:04:51;14.93;;;3.60;;
18999;SDS011;9633;50.980;13.850;2023-12-22T02:06:25;11.87;;;2.70;;
18999;SDS011;9633;50.980;13.850;2023-12-22T02:07:57;17.20;;;3.00;;
18999;SDS011;9633;50.980;13.850;2023-12-22T02:09:31;16.27;;;2.97;;
18999;SDS011;9633;50.980;13.850;2023-12-22T02:11:03;13.27;;;3.13;;
18999;SDS011;9633;50.980;13.850;2023-12-22T02:12:37;18.30;;;3.57;;
18999;SDS011;9633;50.980;13.850;2023-12-22T02:14:09;15.07;;;4.13;;
18999;SDS011;9633;50.980;13.850;2023-12-22T02:15:43;15.57;;;4.17;;
18999;SDS011;9633;50.980;13.850;2023-12-22T02:17:20;16.03;;;3.27;;
18999;SDS011;9633;50.980;13.850;2023-12-22T02:19:00;14.73;;;3.50;;
18999;SDS011;9633;50.980;13.850;2023-12-22T02:20:41;13.93;;;3.30;;
18999;SDS011;9633;50.980;13.850;2023-12-22T02:22:15;19.30;;;4.03;;
18999;SDS011;9633;50.980;13.850;2023-12-22T02:23:49;14.03;;;3.67;;
18999;SDS011;9633;50.980;13.850;2023-12-22T02:25:22;19.17;;;3.80;;
18999;SDS011;9633;50.980;13.850;2023-12-22T02:26:56;16.83;;;4.20;;
18999;SDS011;9633;50.980;13.850;2023-12-22T02:28:29;14.87;;;3.40;;
18999;SDS011;9633;50.980;13.850;2023-12-22T02:30:05;12.23;;;3.00;;
18999;SDS011;9633;50.980;13.850;2023-12-22T02:31:41;21.07;;;3.70;;
18999;SDS011;9633;50.980;13.850;2023-12-22T02:33:19;17.30;;;3.47;;
18999;SDS011;9633;50.980;13.850;2023-12-22T02:34:55;16.43;;;3.23;;
18999;SDS011;9633;50.980;13.850;2023-12-22T02:36:28;18.30;;;3.73;;
18999;SDS011;9633;50.980;13.850;2023-12-22T02:38:04;18.83;;;3.47;;
18999;SDS011;9633;50.980;13.850;2023-12-22T02:39:40;14.13;;;3.10;;
18999;SDS011;9633;50.980;13.850;2023-12-22T02:41:14;13.13;;;3.43;;
18999;SDS011;9633;50.980;13.850;2023-12-22T02:42:48;17.70;;;3.83;;
18999;SDS011;9633;50.980;13.850;2023-12-22T02:44:21;11.60;;;3.43;;
18999;SDS011;9633;50.980;13.850;2023-12-22T02:45:54;16.67;;;3.40;;
18999;SDS011;9633;50.980;13.850;2023-12-22T02:47:28;18.00;;;3.83;;
18999;SDS011;9633;50.980;13.850;2023-12-22T02:49:00;17.07;;;3.67;;
18999;SDS011;9633;50.980;13.850;2023-12-22T02:50:33;17.40;;;3.50;;
18999;SDS011;9633;50.980;13.850;2023-12-22T02:52:06;18.87;;;3.47;;
18999;SDS011;9633;50.980;13.850;2023-12-22T02:53:38;17.00;;;3.80;;
18999;SDS011;9633;50.980;13.850;2023-12-22T02:55:13;25.83;;;4.33;;
18999;SDS011;9633;50.980;13.850;2023-12-22T02:56:45;19.20;;;3.87;;
18999;SDS011;9633;50.980;13.850;2023-12-22T02:58:18;20.60;;;4.50;;
18999;SDS011;9633;50.980;13.850;2023-12-22T02:59:52;26.93;;;4.60;;
18999;SDS011;9633;50.980;13.850;2023-12-22T03:01:24;21.17;;;4.67;;
18999;SDS011;9633;50.980;13.850;2023-12-22T03:02:57;19.77;;;4.13;;
18999;SDS011;9633;50.980;13.850;2023-12-22T03:04:30;12.17;;;3.70;;
18999;SDS011;9633;50.980;13.850;2023-12-22T03:06:03;18.83;;;4.20;;
18999;SDS011;9633;50.980;13.850;2023-12-22T03:07:36;17.77;;;4.07;;
18999;SDS011;9633;50.980;13.850;2023-12-22T03:09:08;17.77;;;3.60;;
18999;SDS011;9633;50.980;13.850;2023-12-22T03:10:44;18.77;;;3.50;;
18999;SDS011;9633;50.980;13.850;2023-12-22T03:12:17;15.67;;;4.27;;
18999;SDS011;9633;50.980;13.850;2023-12-22T03:13:50;17.80;;;3.50;;
18999;SDS011;9633;50.980;13.850;2023-12-22T03:15:22;14.90;;;3.73;;
18999;SDS011;9633;50.980;13.850;2023-12-22T03:16:55;21.53;;;4.03;;
18999;SDS011;9633;50.980;13.850;2023-12-22T03:18:28;18.50;;;4.23;;
18999;SDS011;9633;50.980;13.850;2023-12-22T03:20:01;21.03;;;3.83;;
18999;SDS011;9633;50.980;13.850;2023-12-22T03:21:34;21.43;;;4.73;;
18999;SDS011;9633;50.980;13.850;2023-12-22T03:23:07;16.80;;;3.43;;
18999;SDS011;9633;50.980;13.850;2023-12-22T03:24:39;11.97;;;3.23;;
18999;SDS011;9633;50.980;13.850;2023-12-22T03:26:14;18.20;;;3.53;;
18999;SDS011;9633;50.980;13.850;2023-12-22T03:27:46;16.50;;;3.40;;
18999;SDS011;9633;50.980;13.850;2023-12-22T03:29:20;18.23;;;3.60;;
18999;SDS011;9633;50.980;13.850;2023-12-22T03:30:52;18.67;;;3.90;;
18999;SDS011;9633;50.980;13.850;2023-12-22T03:32:25;18.17;;;4.57;;
18999;SDS011;9633;50.980;13.850;2023-12-22T03:33:58;18.97;;;4.00;;
18999;SDS011;9633;50.980;13.850;2023-12-22T03:35:31;19.90;;;4.27;;
18999;SDS011;9633;50.980;13.850;2023-12-22T03:37:04;16.13;;;3.30;;
18999;SDS011;9633;50.980;13.850;2023-12-22T03:38:38;13.00;;;3.50;;
18999;SDS011;9633;50.980;13.850;2023-12-22T03:40:11;18.90;;;3.43;;
18999;SDS011;9633;50.980;13.850;2023-12-22T03:41:46;14.97;;;3.53;;
18999;SDS011;9633;50.980;13.850;2023-12-22T03:43:19;15.00;;;3.47;;
18999;SDS011;9633;50.980;13.850;2023-12-22T03:44:52;17.50;;;3.90;;
18999;SDS011;9633;50.980;13.850;2023-12-22T03:46:25;17.77;;;3.57;;
18999;SDS011;9633;50.980;13.850;2023-12-22T03:47:58;11.93;;;3.17;;
18999;SDS011;9633;50.980;13.850;2023-12-22T03:49:31;16.63;;;3.43;;
18999;SDS011;9633;50.980;13.850;2023-12-22T03:51:04;15.27;;;3.53;;
18999;SDS011;9633;50.980;13.850;2023-12-22T03:52:37;16.60;;;3.07;;
18999;SDS011;9633;50.980;13.850;2023-12-22T03:54:10;14.00;;;2.87;;
18999;SDS011;9633;50.980;13.850;2023-12-22T03:55:43;11.50;;;2.77;;
18999;SDS011;9633;50.980;13.850;2023-12-22T03:57:18;13.17;;;2.50;;
18999;SDS011;9633;50.980;13.850;2023-12-22T03:58:50;15.67;;;3.27;;
18999;SDS011;9633;50.980;13.850;2023-12-22T04:00:24;13.70;;;2.97;;
18999;SDS011;9633;50.980;13.850;2023-12-22T04:01:57;14.77;;;3.27;;
18999;SDS011;9633;50.980;13.850;2023-12-22T04:03:32;15.77;;;2.97;;
18999;SDS011;9633;50.980;13.850;2023-12-22T04:05:05;16.10;;;3.47;;
18999;SDS011;9633;50.980;13.850;2023-12-22T04:06:39;15.70;;;3.63;;
18999;SDS011;9633;50.980;13.850;2023-12-22T04:08:11;11.93;;;2.63;;
18999;SDS011;9633;50.980;13.850;2023-12-22T04:09:45;17.03;;;3.03;;
18999;SDS011;9633;50.980;13.850;2023-12-22T04:11:17;13.53;;;2.63;;
18999;SDS011;9633;50.980;13.850;2023-12-22T04:12:52;18.17;;;3.00;;
18999;SDS011;9633;50.980;13.850;2023-12-22T04:14:26;13.47;;;3.10;;
18999;SDS011;9633;50.980;13.850;2023-12-22T04:15:58;15.90;;;2.90;;
18999;SDS011;9633;50.980;13.850;2023-12-22T04:17:33;11.07;;;3.07;;
18999;SDS011;9633;50.980;13.850;2023-12-22T04:19:06;13.57;;;2.63;;
18999;SDS011;9633;50.980;13.850;2023-12-22T04:20:42;11.17;;;2.43;;
18999;SDS011;9633;50.980;13.850;2023-12-22T04:22:15;12.40;;;2.90;;
18999;SDS011;9633;50.980;13.850;2023-12-22T04:23:48;12.30;;;2.60;;
18999;SDS011;9633;50.980;13.850;2023-12-22T04:25:21;9.63;;;2.20;;
18999;SDS011;9633;50.980;13.850;2023-12-22T04:26:56;12.73;;;2.83;;
18999;SDS011;9633;50.980;13.850;2023-12-22T04:28:29;18.30;;;3.00;;
18999;SDS011;9633;50.980;13.850;2023-12-22T04:30:03;11.17;;;2.57;;
18999;SDS011;9633;50.980;13.850;2023-12-22T04:31:36;15.30;;;3.00;;
18999;SDS011;9633;50.980;13.850;2023-12-22T04:33:09;14.50;;;2.87;;
18999;SDS011;9633;50.980;13.850;2023-12-22T04:34:42;8.70;;;2.27;;
18999;SDS011;9633;50.980;13.850;2023-12-22T04:36:15;11.53;;;2.50;;
18999;SDS011;9633;50.980;13.850;2023-12-22T04:37:49;10.20;;;2.13;;
18999;SDS011;9633;50.980;13.850;2023-12-22T04:39:22;7.07;;;1.97;;
18999;SDS011;9633;50.980;13.850;2023-12-22T04:40:57;11.87;;;2.47;;
18999;SDS011;9633;50.980;13.850;2023-12-22T04:42:30;7.60;;;2.07;;
18999;SDS011;9633;50.980;13.850;2023-12-22T04:44:05;8.70;;;2.57;;
18999;SDS011;9633;50.980;13.850;2023-12-22T04:45:38;17.03;;;3.33;;
18999;SDS011;9633;50.980;13.850;2023-12-22T04:47:11;12.73;;;2.63;;
18999;SDS011;9633;50.980;13.850;2023-12-22T04:48:44;10.17;;;2.20;;
18999;SDS011;9633;50.980;13.850;2023-12-22T04:50:18;12.00;;;2.17;;
18999;SDS011;9633;50.980;13.850;2023-12-22T04:51:50;11.87;;;2.43;;
18999;SDS011;9633;50.980;13.850;2023-12-22T04:53:24;10.50;;;2.40;;
18999;SDS011;9633;50.980;13.850;2023-12-22T04:54:57;7.47;;;1.93;;
18999;SDS011;9633;50.980;13.850;2023-12-22T04:56:30;9.80;;;2.10;;
18999;SDS011;9633;50.980;13.850;2023-12-22T04:58:03;7.40;;;2.17;;
18999;SDS011;9633;50.980;13.850;2023-12-22T04:59:38;10.17;;;2.30;;
18999;SDS011;9633;50.980;13.850;2023-12-22T05:01:10;10.43;;;2.63;;
18999;SDS011;9633;50.980;13.850;2023-12-22T05:02:44;11.97;;;2.10;;
18999;SDS011;9633;50.980;13.850;2023-12-22T05:04:18;10.30;;;2.00;;
18999;SDS011;9633;50.980;13.850;2023-12-22T05:05:50;7.97;;;1.83;;
18999;SDS011;9633;50.980;13.850;2023-12-22T05:07:24;10.20;;;1.67;;
18999;SDS011;9633;50.980;13.850;2023-12-22T05:08:57;9.13;;;1.83;;
18999;SDS011;9633;50.980;13.850;2023-12-22T05:10:30;7.97;;;1.80;;
18999;SDS011;9633;50.980;13.850;2023-12-22T05:12:04;7.77;;;1.67;;
18999;SDS011;9633;50.980;13.850;2023-12-22T05:13:36;5.67;;;1.57;;
18999;SDS011;9633;50.980;13.850;2023-12-22T05:15:13;6.50;;;1.50;;
18999;SDS011;9633;50.980;13.850;2023-12-22T05:16:46;5.17;;;1.30;;
18999;SDS011;9633;50.980;13.850;2023-12-22T05:18:19;5.63;;;1.17;;
18999;SDS011;9633;50.980;13.850;2023-12-22T05:19:52;5.80;;;1.20;;
18999;SDS011;9633;50.980;13.850;2023-12-22T05:21:26;4.97;;;1.30;;
18999;SDS011;9633;50.980;13.850;2023-12-22T05:22:59;4.50;;;1.27;;
18999;SDS011;9633;50.980;13.850;2023-12-22T05:24:33;3.10;;;1.23;;
18999;SDS011;9633;50.980;13.850;2023-12-22T05:26:05;8.00;;;1.30;;
18999;SDS011;9633;50.980;13.850;2023-12-22T05:27:39;5.20;;;1.07;;
18999;SDS011;9633;50.980;13.850;2023-12-22T05:29:14;6.23;;;1.00;;
18999;SDS011;9633;50.980;13.850;2023-12-22T05:30:49;4.73;;;1.30;;
18999;SDS011;9633;50.980;13.850;2023-12-22T05:32:21;3.93;;;1.20;;
18999;SDS011;9633;50.980;13.850;2023-12-22T05:33:55;4.90;;;1.30;;
18999;SDS011;9633;50.980;13.850;2023-12-22T05:35:28;5.13;;;0.97;;
18999;SDS011;9633;50.980;13.850;2023-12-22T05:37:01;5.30;;;1.40;;
18999;SDS011;9633;50.980;13.850;2023-12-22T05:38:36;3.70;;;0.93;;
18999;SDS011;9633;50.980;13.850;2023-12-22T05:40:10;2.93;;;1.10;;
18999;SDS011;9633;50.980;13.850;2023-12-22T05:41:43;5.70;;;1.33;;
18999;SDS011;9633;50.980;13.850;2023-12-22T05:43:17;6.47;;;1.70;;
18999;SDS011;9633;50.980;13.850;2023-12-22T05:44:49;2.57;;;1.43;;
18999;SDS011;9633;50.980;13.850;2023-12-22T05:46:24;4.80;;;1.60;;
18999;SDS011;9633;50.980;13.850;2023-12-22T05:47:57;4.13;;;1.33;;
18999;SDS011;9633;50.980;13.850;2023-12-22T05:49:30;3.17;;;1.30;;
18999;SDS011;9633;50.980;13.850;2023-12-22T05:51:03;4.37;;;1.43;;
18999;SDS011;9633;50.980;13.850;2023-12-22T05:52:38;7.53;;;1.50;;
18999;SDS011;9633;50.980;13.850;2023-12-22T05:54:11;5.90;;;1.37;;
18999;SDS011;9633;50.980;13.850;2023-12-22T05:55:45;6.83;;;1.80;;
18999;SDS011;9633;50.980;13.850;2023-12-22T05:57:17;7.50;;;2.00;;
18999;SDS011;9633;50.980;13.850;2023-12-22T05:58:51;6.17;;;1.40;;
18999;SDS011;9633;50.980;13.850;2023-12-22T06:00:23;3.23;;;1.27;;
18999;SDS011;9633;50.980;13.850;2023-12-22T06:01:59;7.80;;;1.43;;
18999;SDS011;9633;50.980;13.850;2023-12-22T06:03:31;4.27;;;1.37;;
18999;SDS011;9633;50.980;13.850;2023-12-22T06:05:05;12.27;;;1.77;;
18999;SDS011;9633;50.980;13.850;2023-12-22T06:06:38;6.10;;;1.77;;
18999;SDS011;9633;50.980;13.850;2023-12-22T06:08:12;4.83;;;1.33;;
18999;SDS011;9633;50.980;13.850;2023-12-22T06:09:44;6.77;;;1.40;;
18999;SDS011;9633;50.980;13.850;2023-12-22T06:11:17;5.23;;;1.50;;
18999;SDS011;9633;50.980;13.850;2023-12-22T06:12:50;10.10;;;2.10;;
18999;SDS011;9633;50.980;13.850;2023-12-22T06:14:23;3.90;;;1.40;;
18999;SDS011;9633;50.980;13.850;2023-12-22T06:15:56;6.10;;;1.47;;
18999;SDS011;9633;50.980;13.850;2023-12-22T06:17:31;6.23;;;1.60;;
18999;SDS011;9633;50.980;13.850;2023-12-22T06:19:03;9.17;;;1.40;;
18999;SDS011;9633;50.980;13.850;2023-12-22T06:20:37;7.07;;;1.90;;
18999;SDS011;9633;50.980;13.850;2023-12-22T06:22:09;6.30;;;1.50;;
18999;SDS011;9633;50.980;13.850;2023-12-22T06:23:43;8.43;;;1.47;;
18999;SDS011;9633;50.980;13.850;2023-12-22T06:25:16;6.50;;;1.60;;
18999;SDS011;9633;50.980;13.850;2023-12-22T06:26:49;7.03;;;1.90;;
18999;SDS011;9633;50.980;13.850;2023-12-22T06:28:22;5.17;;;1.37;;
18999;SDS011;9633;50.980;13.850;2023-12-22T06:29:55;5.67;;;1.77;;
18999;SDS011;9633;50.980;13.850;2023-12-22T06:31:28;7.13;;;1.90;;
18999;SDS011;9633;50.980;13.850;2023-12-22T06:33:02;6.00;;;1.40;;
18999;SDS011;9633;50.980;13.850;2023-12-22T06:34:36;9.63;;;1.83;;
18999;SDS011;9633;50.980;13.850;2023-12-22T06:36:17;6.03;;;1.93;;
18999;SDS011;9633;50.980;13.850;2023-12-22T06:37:50;10.83;;;2.10;;
18999;SDS011;9633;50.980;13.850;2023-12-22T06:39:25;7.20;;;1.60;;
18999;SDS011;9633;50.980;13.850;2023-12-22T06:40:58;6.33;;;1.93;;
18999;SDS011;9633;50.980;13.850;2023-12-22T06:42:31;7.63;;;2.10;;
18999;SDS011;9633;50.980;13.850;2023-12-22T06:44:04;9.50;;;1.70;;
18999;SDS011;9633;50.980;13.850;2023-12-22T06:45:38;5.30;;;1.60;;
18999;SDS011;9633;50.980;13.850;2023-12-22T06:47:11;8.50;;;1.87;;
18999;SDS011;9633;50.980;13.850;2023-12-22T06:48:46;9.33;;;2.10;;
18999;SDS011;9633;50.980;13.850;2023-12-22T06:50:18;5.17;;;1.40;;
18999;SDS011;9633;50.980;13.850;2023-12-22T06:51:52;3.83;;;1.53;;
18999;SDS011;9633;50.980;13.850;2023-12-22T06:53:25;5.70;;;1.80;;
18999;SDS011;9633;50.980;13.850;2023-12-22T06:54:58;7.83;;;2.03;;
18999;SDS011;9633;50.980;13.850;2023-12-22T06:56:33;7.20;;;2.20;;
18999;SDS011;9633;50.980;13.850;2023-12-22T06:58:06;6.27;;;1.93;;
18999;SDS011;9633;50.980;13.850;2023-12-22T06:59:40;5.87;;;1.83;;
18999;SDS011;9633;50.980;13.850;2023-12-22T07:01:17;7.13;;;1.70;;
18999;SDS011;9633;50.980;13.850;2023-12-22T07:02:52;8.23;;;2.30;;
18999;SDS011;9633;50.980;13.850;2023-12-22T07:04:27;8.53;;;2.00;;
18999;SDS011;9633;50.980;13.850;2023-12-22T07:05:59;13.97;;;2.00;;
18999;SDS011;9633;50.980;13.850;2023-12-22T07:07:33;6.70;;;1.77;;
18999;SDS011;9633;50.980;13.850;2023-12-22T07:11:00;6.53;;;1.70;;
18999;SDS011;9633;50.980;13.850;2023-12-22T07:12:34;8.17;;;1.60;;
18999;SDS011;9633;50.980;13.850;2023-12-22T07:14:06;5.87;;;1.43;;
18999;SDS011;9633;50.980;13.850;2023-12-22T07:15:42;5.37;;;1.73;;
18999;SDS011;9633;50.980;13.850;2023-12-22T07:17:15;5.57;;;1.83;;
18999;SDS011;9633;50.980;13.850;2023-12-22T07:18:49;6.20;;;1.27;;
18999;SDS011;9633;50.980;13.850;2023-12-22T07:20:24;5.00;;;1.60;;
18999;SDS011;9633;50.980;13.850;2023-12-22T07:21:58;8.00;;;2.30;;
18999;SDS011;9633;50.980;13.850;2023-12-22T07:23:30;10.60;;;1.67;;
18999;SDS011;9633;50.980;13.850;2023-12-22T07:25:04;7.47;;;1.77;;
18999;SDS011;9633;50.980;13.850;2023-12-22T07:26:38;6.27;;;1.53;;
18999;SDS011;9633;50.980;13.850;2023-12-22T07:28:12;7.77;;;1.70;;
18999;SDS011;9633;50.980;13.850;2023-12-22T07:29:44;7.27;;;1.60;;
18999;SDS011;9633;50.980;13.850;2023-12-22T07:31:18;7.43;;;1.20;;
18999;SDS011;9633;50.980;13.850;2023-12-22T07:32:51;5.73;;;1.50;;
18999;SDS011;9633;50.980;13.850;2023-12-22T07:34:25;8.03;;;1.70;;
18999;SDS011;9633;50.980;13.850;2023-12-22T07:36:00;6.40;;;1.60;;
18999;SDS011;9633;50.980;13.850;2023-12-22T07:37:35;11.47;;;2.10;;
18999;SDS011;9633;50.980;13.850;2023-12-22T07:39:10;6.90;;;1.80;;
18999;SDS011;9633;50.980;13.850;2023-12-22T07:40:43;7.50;;;1.83;;
18999;SDS011;9633;50.980;13.850;2023-12-22T07:42:16;7.20;;;1.63;;
18999;SDS011;9633;50.980;13.850;2023-12-22T07:43:49;9.40;;;1.80;;
18999;SDS011;9633;50.980;13.850;2023-12-22T07:45:22;7.90;;;1.93;;
18999;SDS011;9633;50.980;13.850;2023-12-22T07:46:58;7.03;;;1.77;;
18999;SDS011;9633;50.980;13.850;2023-12-22T07:48:34;5.83;;;1.73;;
18999;SDS011;9633;50.980;13.850;2023-12-22T07:50:07;6.27;;;1.87;;
18999;SDS011;9633;50.980;13.850;2023-12-22T07:51:42;6.67;;;1.60;;
18999;SDS011;9633;50.980;13.850;2023-12-22T07:53:15;5.00;;;1.57;;
18999;SDS011;9633;50.980;13.850;2023-12-22T07:54:48;8.40;;;1.63;;
18999;SDS011;9633;50.980;13.850;2023-12-22T07:56:22;6.97;;;1.50;;
18999;SDS011;9633;50.980;13.850;2023-12-22T07:57:55;10.57;;;2.20;;
18999;SDS011;9633;50.980;13.850;2023-12-22T07:59:28;5.87;;;1.90;;
18999;SDS011;9633;50.980;13.850;2023-12-22T08:01:03;10.07;;;2.57;;
18999;SDS011;9633;50.980;13.850;2023-12-22T08:02:36;9.43;;;1.40;;
18999;SDS011;9633;50.980;13.850;2023-12-22T08:04:09;13.47;;;2.90;;
18999;SDS011;9633;50.980;13.850;2023-12-22T08:05:42;6.13;;;2.40;;
18999;SDS011;9633;50.980;13.850;2023-12-22T08:07:17;10.33;;;2.30;;
18999;SDS011;9633;50.980;13.850;2023-12-22T08:08:50;8.77;;;2.30;;
18999;SDS011;9633;50.980;13.850;2023-12-22T08:10:24;5.53;;;1.73;;
18999;SDS011;9633;50.980;13.850;2023-12-22T08:11:56;6.73;;;2.13;;
18999;SDS011;9633;50.980;13.850;2023-12-22T08:13:30;8.13;;;2.73;;
18999;SDS011;9633;50.980;13.850;2023-12-22T08:15:04;4.90;;;1.87;;
18999;SDS011;9633;50.980;13.850;2023-12-22T08:16:38;4.60;;;2.00;;
18999;SDS011;9633;50.980;13.850;2023-12-22T08:18:10;5.20;;;1.87;;
18999;SDS011;9633;50.980;13.850;2023-12-22T08:19:44;7.67;;;2.30;;
18999;SDS011;9633;50.980;13.850;2023-12-22T08:21:19;10.00;;;2.70;;
18999;SDS011;9633;50.980;13.850;2023-12-22T08:23:10;7.83;;;1.27;;
18999;SDS011;9633;50.980;13.850;2023-12-22T08:24:45;3.60;;;1.30;;
18999;SDS011;9633;50.980;13.850;2023-12-22T08:26:20;1.42;;;0.90;;
18999;SDS011;9633;50.980;13.850;2023-12-22T08:27:53;4.60;;;1.05;;
18999;SDS011;9633;50.980;13.850;2023-12-22T08:29:26;4.60;;;1.30;;
18999;SDS011;9633;50.980;13.850;2023-12-22T08:30:59;2.35;;;0.93;;
18999;SDS011;9633;50.980;13.850;2023-12-22T08:32:32;4.03;;;1.30;;
18999;SDS011;9633;50.980;13.850;2023-12-22T08:34:06;3.58;;;1.00;;
18999;SDS011;9633;50.980;13.850;2023-12-22T08:35:38;4.28;;;1.25;;
18999;SDS011;9633;50.980;13.850;2023-12-22T08:37:12;2.43;;;0.80;;
18999;SDS011;9633;50.980;13.850;2023-12-22T08:38:46;1.90;;;1.05;;
18999;SDS011;9633;50.980;13.850;2023-12-22T08:40:20;4.60;;;1.15;;
18999;SDS011;9633;50.980;13.850;2023-12-22T08:41:58;1.33;;;0.90;;
18999;SDS011;9633;50.980;13.850;2023-12-22T08:43:32;4.30;;;1.10;;
18999;SDS011;9633;50.980;13.850;2023-12-22T08:45:06;2.73;;;1.10;;
18999;SDS011;9633;50.980;13.850;2023-12-22T08:46:39;1.37;;;0.93;;
18999;SDS011;9633;50.980;13.850;2023-12-22T08:48:12;3.90;;;1.33;;
18999;SDS011;9633;50.980;13.850;2023-12-22T08:49:46;2.15;;;1.17;;
18999;SDS011;9633;50.980;13.850;2023-12-22T08:51:19;2.17;;;0.80;;
18999;SDS011;9633;50.980;13.850;2023-12-22T08:52:52;1.60;;;0.75;;
18999;SDS011;9633;50.980;13.850;2023-12-22T08:54:26;1.85;;;1.00;;
18999;SDS011;9633;50.980;13.850;2023-12-22T08:55:59;0.98;;;0.77;;
18999;SDS011;9633;50.980;13.850;2023-12-22T08:57:32;2.80;;;1.23;;
18999;SDS011;9633;50.980;13.850;2023-12-22T08:59:06;1.97;;;1.60;;
18999;SDS011;9633;50.980;13.850;2023-12-22T09:00:40;1.73;;;1.30;;
18999;SDS011;9633;50.980;13.850;2023-12-22T09:02:14;4.00;;;1.67;;
18999;SDS011;9633;50.980;13.850;2023-12-22T09:03:46;6.85;;;2.00;;
18999;SDS011;9633;50.980;13.850;2023-12-22T09:05:20;5.80;;;2.40;;
18999;SDS011;9633;50.980;13.850;2023-12-22T09:06:53;4.13;;;2.03;;
18999;SDS011;9633;50.980;13.850;2023-12-22T09:08:26;5.73;;;2.00;;
18999;SDS011;9633;50.980;13.850;2023-12-22T09:10:00;7.80;;;2.03;;
18999;SDS011;9633;50.980;13.850;2023-12-22T09:11:37;8.85;;;2.30;;
18999;SDS011;9633;50.980;13.850;2023-12-22T09:13:09;7.87;;;2.77;;
18999;SDS011;9633;50.980;13.850;2023-12-22T09:14:43;8.15;;;2.55;;
18999;SDS011;9633;50.980;13.850;2023-12-22T09:16:20;12.50;;;2.80;;
18999;SDS011;9633;50.980;13.850;2023-12-22T09:17:54;12.03;;;3.40;;
18999;SDS011;9633;50.980;13.850;2023-12-22T09:19:27;8.10;;;2.50;;
18999;SDS011;9633;50.980;13.850;2023-12-22T09:21:01;8.13;;;2.77;;